Time;durP1;ratioP1;P1;durP2;ratioP2;P2;SDS_P1;SDS_P2;PMS_P1;PMS_P2;Temp;Humidity;BMP_temperature;BMP_pressure;BME280_temperature;BME280_humidity;BME280_pressure;Samples;Min_cycle;Max_cycle;Signal;HPM_P1;HPM_P2
2023/11/11 00:01:52;;;;;;;10.07;6.57;;;;;;;;;;5142101;27;20019;-71
2023/11/11 00:04:38;;;;;;;10.55;6.40;;;;;;;;;;5124519;27;20336;-71
2023/11/11 00:07:24;;;;;;;9.90;6.25;;;;;;;;;;5137081;27;20088;-71
2023/11/11 00:10:11;;;;;;;10.88;6.97;;;;;;;;;;5096313;28;20417;-71
2023/11/11 00:12:57;;;;;;;8.80;6.28;;;;;;;;;;5096847;28;20416;-71
2023/11/11 00:15:43;;;;;;;8.77;5.95;;;;;;;;;;5095975;28;20455;-71
2023/11/11 00:18:28;;;;;;;9.05;5.85;;;;;;;;;;5094798;28;20034;-70
2023/11/11 00:21:14;;;;;;;12.35;6.15;;;;;;;;;;5095452;28;20021;-72
2023/11/11 00:24:00;;;;;;;9.85;6.32;;;;;;;;;;5096992;28;20092;-70
2023/11/11 00:26:48;;;;;;;9.07;6.00;;;;;;;;;;5095190;28;20016;-71
2023/11/11 00:29:33;;;;;;;13.45;6.55;;;;;;;;;;5095038;28;20109;-71
2023/11/11 00:32:19;;;;;;;9.88;6.55;;;;;;;;;;5095971;28;20448;-70
2023/11/11 00:35:08;;;;;;;10.93;6.57;;;;;;;;;;5094494;28;20028;-70
2023/11/11 00:37:53;;;;;;;12.63;7.43;;;;;;;;;;5080660;28;20016;-70
2023/11/11 00:40:40;;;;;;;10.15;7.35;;;;;;;;;;5095765;28;20468;-71
2023/11/11 00:43:25;;;;;;;9.43;6.70;;;;;;;;;;5096175;28;20456;-70
2023/11/11 00:46:11;;;;;;;11.35;7.03;;;;;;;;;;5094848;28;20020;-70
2023/11/11 00:48:56;;;;;;;10.98;7.03;;;;;;;;;;5093988;28;20052;-70
2023/11/11 00:51:42;;;;;;;9.50;6.95;;;;;;;;;;5081269;28;20020;-71
2023/11/11 00:54:30;;;;;;;12.63;6.75;;;;;;;;;;5084484;28;20131;-71
2023/11/11 00:57:16;;;;;;;10.57;5.95;;;;;;;;;;5075838;28;20024;-70
2023/11/11 01:00:03;;;;;;;11.30;6.65;;;;;;;;;;5076340;28;20075;-71
2023/11/11 01:02:52;;;;;;;9.23;6.00;;;;;;;;;;5075796;28;20042;-71
2023/11/11 01:05:37;;;;;;;9.15;6.38;;;;;;;;;;5060900;28;20460;-71
2023/11/11 01:08:23;;;;;;;10.38;6.63;;;;;;;;;;5081161;28;20063;-71
2023/11/11 01:11:08;;;;;;;10.25;6.40;;;;;;;;;;5095352;28;20020;-70
2023/11/11 01:13:54;;;;;;;8.82;6.40;;;;;;;;;;5080460;28;20024;-70
2023/11/11 01:16:40;;;;;;;12.93;6.72;;;;;;;;;;5074451;28;20081;-71
2023/11/11 01:19:25;;;;;;;8.10;6.07;;;;;;;;;;5095164;28;20352;-71
2023/11/11 01:22:13;;;;;;;10.63;6.57;;;;;;;;;;5095097;28;20447;-71
2023/11/11 01:24:59;;;;;;;9.13;6.40;;;;;;;;;;5079648;28;20056;-70
2023/11/11 01:27:45;;;;;;;8.85;6.15;;;;;;;;;;5094886;28;20032;-70
2023/11/11 01:30:30;;;;;;;10.48;6.55;;;;;;;;;;5094264;28;20024;-72
2023/11/11 01:33:16;;;;;;;12.88;6.82;;;;;;;;;;5079618;28;20020;-70
2023/11/11 01:36:04;;;;;;;10.15;6.88;;;;;;;;;;5079522;28;20027;-71
2023/11/11 01:38:49;;;;;;;11.35;6.72;;;;;;;;;;5080019;28;20026;-70
2023/11/11 01:41:35;;;;;;;13.73;7.07;;;;;;;;;;5094489;28;20076;-70
2023/11/11 01:44:21;;;;;;;15.55;8.25;;;;;;;;;;5095517;28;20096;-70
2023/11/11 01:47:06;;;;;;;13.50;7.63;;;;;;;;;;5095391;28;20085;-70
2023/11/11 01:49:52;;;;;;;11.00;7.78;;;;;;;;;;5080035;28;20094;-71
2023/11/11 01:52:38;;;;;;;11.93;7.95;;;;;;;;;;5094526;28;20115;-70
2023/11/11 01:55:24;;;;;;;16.92;8.20;;;;;;;;;;5112573;28;20083;-69
2023/11/11 01:58:10;;;;;;;14.38;8.40;;;;;;;;;;5114554;28;20098;-71
2023/11/11 02:00:57;;;;;;;11.68;7.85;;;;;;;;;;5114515;28;20069;-71
2023/11/11 02:03:43;;;;;;;14.88;7.90;;;;;;;;;;5114724;28;20028;-71
2023/11/11 02:06:29;;;;;;;11.05;7.00;;;;;;;;;;5099484;28;20118;-69
2023/11/11 02:09:17;;;;;;;14.52;7.88;;;;;;;;;;5114108;28;20030;-70
2023/11/11 02:12:04;;;;;;;11.45;7.30;;;;;;;;;;5099227;28;20019;-70
2023/11/11 02:14:50;;;;;;;11.65;7.55;;;;;;;;;;5114300;28;20020;-71
2023/11/11 02:17:36;;;;;;;10.20;7.72;;;;;;;;;;5114803;28;20024;-70
2023/11/11 02:20:21;;;;;;;10.70;7.82;;;;;;;;;;5113998;28;20012;-71
2023/11/11 02:23:07;;;;;;;11.43;7.80;;;;;;;;;;5120944;28;20012;-70
2023/11/11 02:25:53;;;;;;;11.95;8.40;;;;;;;;;;5121226;28;20024;-69
2023/11/11 02:28:38;;;;;;;11.63;8.38;;;;;;;;;;5121685;28;20015;-71
2023/11/11 02:31:24;;;;;;;11.18;8.02;;;;;;;;;;5105788;28;20020;-70
2023/11/11 02:34:09;;;;;;;12.23;7.95;;;;;;;;;;5105997;28;20019;-71
2023/11/11 02:36:55;;;;;;;11.40;8.40;;;;;;;;;;5121803;28;20023;-70
2023/11/11 02:39:41;;;;;;;14.13;7.65;;;;;;;;;;5107270;28;20499;-72
2023/11/11 02:42:27;;;;;;;10.25;7.95;;;;;;;;;;5121168;28;20066;-71
2023/11/11 02:45:12;;;;;;;12.00;8.30;;;;;;;;;;5120514;28;20031;-70
2023/11/11 02:47:58;;;;;;;12.07;8.40;;;;;;;;;;5105563;28;20032;-71
2023/11/11 02:50:43;;;;;;;15.63;8.07;;;;;;;;;;5120647;28;20012;-70
2023/11/11 02:53:29;;;;;;;13.30;8.23;;;;;;;;;;5120466;28;20023;-70
2023/11/11 02:56:14;;;;;;;13.07;7.60;;;;;;;;;;5121375;28;20035;-70
2023/11/11 02:59:00;;;;;;;14.40;8.02;;;;;;;;;;5120177;28;20436;-70
2023/11/11 03:01:46;;;;;;;13.27;8.82;;;;;;;;;;5120878;28;20042;-70
2023/11/11 03:04:32;;;;;;;17.98;8.63;;;;;;;;;;5120619;28;20030;-71
2023/11/11 03:07:17;;;;;;;12.65;8.73;;;;;;;;;;5120269;28;20015;-70
2023/11/11 03:10:05;;;;;;;13.32;7.97;;;;;;;;;;5121549;28;20019;-71
2023/11/11 03:12:52;;;;;;;12.88;8.23;;;;;;;;;;5105882;28;20089;-70
2023/11/11 03:15:37;;;;;;;13.98;8.32;;;;;;;;;;5120391;28;20024;-71
2023/11/11 03:18:23;;;;;;;15.07;7.93;;;;;;;;;;5120574;28;20516;-71
2023/11/11 03:21:18;;;;;;;13.77;7.82;;;;;;;;;;5121931;28;20118;-69
2023/11/11 03:24:04;;;;;;;12.32;7.60;;;;;;;;;;5120847;28;20031;-71
2023/11/11 03:26:50;;;;;;;13.52;8.07;;;;;;;;;;5106354;28;20507;-71
2023/11/11 03:29:35;;;;;;;11.27;8.00;;;;;;;;;;5120435;28;20032;-71
2023/11/11 03:32:21;;;;;;;12.20;7.80;;;;;;;;;;5105173;28;20106;-71
2023/11/11 03:35:07;;;;;;;11.45;7.93;;;;;;;;;;5101472;28;20340;-70
2023/11/11 03:37:52;;;;;;;10.25;7.20;;;;;;;;;;5117156;28;20020;-70
2023/11/11 03:40:38;;;;;;;11.88;7.38;;;;;;;;;;5101965;28;20123;-71
2023/11/11 03:43:24;;;;;;;11.35;7.93;;;;;;;;;;5100959;28;20031;-71
2023/11/11 03:46:09;;;;;;;11.93;8.02;;;;;;;;;;5102030;28;20034;-71
2023/11/11 03:48:55;;;;;;;11.65;8.20;;;;;;;;;;5102466;28;20019;-71
2023/11/11 03:51:40;;;;;;;14.02;8.93;;;;;;;;;;5117034;28;20051;-71
2023/11/11 03:54:27;;;;;;;12.55;7.68;;;;;;;;;;5117462;28;20054;-70
2023/11/11 03:57:13;;;;;;;8.77;6.85;;;;;;;;;;5116213;28;20020;-70
2023/11/11 03:59:59;;;;;;;12.30;7.90;;;;;;;;;;5102030;28;20015;-72
2023/11/11 04:02:45;;;;;;;13.52;8.73;;;;;;;;;;5116259;28;20084;-71
2023/11/11 04:05:31;;;;;;;13.65;8.10;;;;;;;;;;5116629;28;20139;-71
2023/11/11 04:08:19;;;;;;;12.02;7.40;;;;;;;;;;5116186;28;20023;-71
2023/11/11 04:11:07;;;;;;;11.60;7.68;;;;;;;;;;5117059;28;20024;-71
2023/11/11 04:13:53;;;;;;;12.43;8.30;;;;;;;;;;5117342;28;20111;-71
2023/11/11 04:16:40;;;;;;;12.30;7.85;;;;;;;;;;5117895;28;20030;-71
2023/11/11 04:19:25;;;;;;;11.40;8.25;;;;;;;;;;5120839;28;20019;-70
2023/11/11 04:22:11;;;;;;;11.43;7.40;;;;;;;;;;5139184;27;20011;-70
2023/11/11 04:24:56;;;;;;;12.73;7.72;;;;;;;;;;5133849;28;20027;-71
2023/11/11 04:27:42;;;;;;;11.13;7.50;;;;;;;;;;5124793;27;20032;-71
2023/11/11 04:30:29;;;;;;;9.70;7.22;;;;;;;;;;5139531;27;20038;-70
2023/11/11 04:33:16;;;;;;;11.80;7.82;;;;;;;;;;5140304;27;20008;-71
2023/11/11 04:36:02;;;;;;;11.23;8.23;;;;;;;;;;5119469;27;20038;-71
2023/11/11 04:38:47;;;;;;;7.70;6.50;;;;;;;;;;5115927;28;20068;-70
2023/11/11 04:41:33;;;;;;;8.88;6.28;;;;;;;;;;5116132;28;20024;-71
2023/11/11 04:44:18;;;;;;;10.52;6.10;;;;;;;;;;5115032;28;20111;-70
2023/11/11 04:47:04;;;;;;;9.73;6.18;;;;;;;;;;5115571;28;20016;-71
2023/11/11 04:49:50;;;;;;;10.15;6.63;;;;;;;;;;5115253;28;20030;-70
2023/11/11 04:52:36;;;;;;;13.80;8.45;;;;;;;;;;5115724;28;20436;-71
2023/11/11 04:55:21;;;;;;;9.50;7.13;;;;;;;;;;5114990;28;20118;-70
2023/11/11 04:58:07;;;;;;;8.38;5.70;;;;;;;;;;5116340;28;20320;-71
2023/11/11 05:00:52;;;;;;;8.95;5.93;;;;;;;;;;5115625;28;20015;-71
2023/11/11 05:03:40;;;;;;;8.23;5.55;;;;;;;;;;5115971;28;20501;-70
2023/11/11 05:06:27;;;;;;;8.32;5.38;;;;;;;;;;5116057;28;20359;-70
2023/11/11 05:09:12;;;;;;;6.32;5.15;;;;;;;;;;5101604;28;20406;-71
2023/11/11 05:11:58;;;;;;;11.82;5.68;;;;;;;;;;5115889;28;20031;-71
2023/11/11 05:14:43;;;;;;;8.57;5.35;;;;;;;;;;5115736;28;20466;-71
2023/11/11 05:17:29;;;;;;;11.40;5.88;;;;;;;;;;5116020;28;20411;-71
2023/11/11 05:20:17;;;;;;;9.23;5.50;;;;;;;;;;5115472;28;20092;-70
2023/11/11 05:23:03;;;;;;;7.07;5.22;;;;;;;;;;5115583;28;20085;-70
2023/11/11 05:25:48;;;;;;;10.15;5.70;;;;;;;;;;5101038;28;20024;-71
2023/11/11 05:28:34;;;;;;;12.13;5.55;;;;;;;;;;5114834;28;20451;-71
2023/11/11 05:31:20;;;;;;;14.02;6.15;;;;;;;;;;5114996;28;20038;-70
2023/11/11 05:34:05;;;;;;;13.43;6.03;;;;;;;;;;5115175;28;20080;-71
2023/11/11 05:36:51;;;;;;;11.88;6.38;;;;;;;;;;5115227;28;20027;-71
2023/11/11 05:39:36;;;;;;;9.25;5.97;;;;;;;;;;5114541;28;20020;-70
2023/11/11 05:42:22;;;;;;;13.07;6.68;;;;;;;;;;5114662;28;20094;-71
2023/11/11 05:45:10;;;;;;;13.93;6.13;;;;;;;;;;5115849;28;20447;-71
2023/11/11 05:47:55;;;;;;;9.27;6.80;;;;;;;;;;5113563;28;20051;-72
2023/11/11 05:50:41;;;;;;;14.70;7.00;;;;;;;;;;5099707;28;20106;-71
2023/11/11 05:53:26;;;;;;;11.73;6.53;;;;;;;;;;5114332;28;20027;-71
2023/11/11 05:56:13;;;;;;;13.07;6.78;;;;;;;;;;5113812;28;20074;-72
2023/11/11 05:58:58;;;;;;;12.43;6.53;;;;;;;;;;5114304;28;20016;-71
2023/11/11 06:01:45;;;;;;;9.63;6.55;;;;;;;;;;5114670;28;20050;-72
2023/11/11 06:04:34;;;;;;;19.88;8.30;;;;;;;;;;5114445;28;20028;-71
2023/11/11 06:07:20;;;;;;;11.68;7.03;;;;;;;;;;5115328;28;20093;-72
2023/11/11 06:10:08;;;;;;;13.25;6.60;;;;;;;;;;5114193;28;20039;-71
2023/11/11 06:12:53;;;;;;;11.55;7.55;;;;;;;;;;5115453;28;20108;-71
2023/11/11 06:15:39;;;;;;;10.63;7.50;;;;;;;;;;5114338;28;20166;-72
2023/11/11 06:18:24;;;;;;;10.48;6.70;;;;;;;;;;5114678;28;20020;-73
2023/11/11 06:21:11;;;;;;;12.40;7.47;;;;;;;;;;5114211;28;20024;-71
2023/11/11 06:23:57;;;;;;;9.65;6.68;;;;;;;;;;5115048;28;20367;-71
2023/11/11 06:26:42;;;;;;;9.45;6.65;;;;;;;;;;5114457;28;20016;-71
2023/11/11 06:29:28;;;;;;;11.82;6.90;;;;;;;;;;5114393;28;20024;-72
2023/11/11 06:32:13;;;;;;;13.15;7.25;;;;;;;;;;5114231;28;20027;-71
2023/11/11 06:34:59;;;;;;;14.15;6.60;;;;;;;;;;5114432;28;20455;-72
2023/11/11 06:37:45;;;;;;;8.70;5.63;;;;;;;;;;5113972;28;20016;-71
2023/11/11 06:40:31;;;;;;;13.98;6.22;;;;;;;;;;5113554;28;20133;-71
2023/11/11 06:43:17;;;;;;;8.88;6.07;;;;;;;;;;5114976;28;20060;-71
2023/11/11 06:46:08;;;;;;;9.48;6.82;;;;;;;;;;5113759;28;20364;-71
2023/11/11 06:48:54;;;;;;;9.00;6.32;;;;;;;;;;5113810;28;20114;-72
2023/11/11 06:51:39;;;;;;;12.20;6.90;;;;;;;;;;5114235;28;20012;-71
2023/11/11 06:54:25;;;;;;;17.08;8.00;;;;;;;;;;5114490;28;20414;-71
2023/11/11 06:57:10;;;;;;;11.35;7.95;;;;;;;;;;5099393;28;20344;-72
2023/11/11 06:59:56;;;;;;;13.05;8.30;;;;;;;;;;5114435;28;20082;-72
2023/11/11 07:02:43;;;;;;;8.93;7.30;;;;;;;;;;5114035;28;20031;-72
2023/11/11 07:05:29;;;;;;;12.32;7.47;;;;;;;;;;5099947;28;20066;-72
2023/11/11 07:08:14;;;;;;;10.45;7.50;;;;;;;;;;5116091;28;20038;-72
2023/11/11 07:11:00;;;;;;;17.27;8.23;;;;;;;;;;5117505;28;20019;-72
2023/11/11 07:13:47;;;;;;;11.05;7.65;;;;;;;;;;5103338;28;20028;-72
2023/11/11 07:16:32;;;;;;;12.00;8.05;;;;;;;;;;5118911;28;20024;-72
2023/11/11 07:19:18;;;;;;;11.52;7.30;;;;;;;;;;5117640;28;20019;-71
2023/11/11 07:22:04;;;;;;;10.15;7.50;;;;;;;;;;5117288;28;20454;-71
2023/11/11 07:24:49;;;;;;;11.35;8.40;;;;;;;;;;5118098;28;20058;-72
2023/11/11 07:27:35;;;;;;;14.55;8.90;;;;;;;;;;5103031;28;20019;-71
2023/11/11 07:30:21;;;;;;;13.50;8.65;;;;;;;;;;5117175;28;20056;-72
2023/11/11 07:33:06;;;;;;;20.77;9.80;;;;;;;;;;5117658;28;20038;-71
2023/11/11 07:35:52;;;;;;;14.18;9.35;;;;;;;;;;5120245;28;20031;-71
2023/11/11 07:38:39;;;;;;;12.13;8.68;;;;;;;;;;5118414;28;20057;-72
2023/11/11 07:41:25;;;;;;;14.77;9.55;;;;;;;;;;5115787;28;20102;-71
2023/11/11 07:44:11;;;;;;;18.20;9.35;;;;;;;;;;5117475;28;20015;-72
2023/11/11 07:46:57;;;;;;;16.80;10.35;;;;;;;;;;5102620;28;20176;-72
2023/11/11 07:49:43;;;;;;;19.00;11.45;;;;;;;;;;5104042;28;20012;-71
2023/11/11 07:52:29;;;;;;;16.33;10.50;;;;;;;;;;5118227;28;20019;-72
2023/11/11 07:55:15;;;;;;;13.88;9.52;;;;;;;;;;5103421;28;20079;-71
2023/11/11 07:58:00;;;;;;;14.98;9.27;;;;;;;;;;5122264;28;20024;-72
2023/11/11 08:00:47;;;;;;;17.55;9.15;;;;;;;;;;5120621;28;20026;-72
2023/11/11 08:03:33;;;;;;;27.58;10.38;;;;;;;;;;5119533;28;20030;-72
2023/11/11 08:06:19;;;;;;;17.67;9.63;;;;;;;;;;5118840;28;20020;-73
2023/11/11 08:09:04;;;;;;;21.80;10.43;;;;;;;;;;5118463;28;20332;-72
2023/11/11 08:11:50;;;;;;;17.05;9.73;;;;;;;;;;5119589;27;20032;-72
2023/11/11 08:14:36;;;;;;;18.65;9.65;;;;;;;;;;5117223;28;20088;-72
2023/11/11 08:17:21;;;;;;;14.75;9.75;;;;;;;;;;5118210;28;20053;-72
2023/11/11 08:20:11;;;;;;;17.55;9.38;;;;;;;;;;5116527;28;20031;-71
2023/11/11 08:22:57;;;;;;;17.73;11.50;;;;;;;;;;5128867;28;20019;-70
2023/11/11 08:25:42;;;;;;;21.25;10.90;;;;;;;;;;5115403;28;20067;-70
2023/11/11 08:28:28;;;;;;;17.45;10.75;;;;;;;;;;5131209;28;20080;-70
2023/11/11 08:31:13;;;;;;;17.88;10.43;;;;;;;;;;5135929;28;20024;-72
2023/11/11 08:34:01;;;;;;;14.55;9.30;;;;;;;;;;5117713;28;20054;-72
2023/11/11 08:36:47;;;;;;;13.10;8.63;;;;;;;;;;5132033;28;20030;-72
2023/11/11 08:39:32;;;;;;;13.05;9.48;;;;;;;;;;5132315;28;20099;-70
2023/11/11 08:42:18;;;;;;;14.63;10.27;;;;;;;;;;5131951;28;20118;-72
2023/11/11 08:45:04;;;;;;;16.33;10.07;;;;;;;;;;5116419;28;20056;-71
2023/11/11 08:47:49;;;;;;;15.70;11.38;;;;;;;;;;5128409;28;20057;-71
2023/11/11 08:50:35;;;;;;;22.27;15.15;;;;;;;;;;5127526;28;20046;-72
2023/11/11 08:53:21;;;;;;;18.55;13.38;;;;;;;;;;5125324;28;20020;-73
2023/11/11 08:56:06;;;;;;;19.13;13.23;;;;;;;;;;5127906;28;20027;-70
2023/11/11 08:58:52;;;;;;;20.42;14.10;;;;;;;;;;5131121;28;20015;-71
2023/11/11 09:01:38;;;;;;;25.08;14.93;;;;;;;;;;5129531;28;20148;-71
2023/11/11 09:04:23;;;;;;;32.92;13.82;;;;;;;;;;5132074;28;20032;-71
2023/11/11 09:07:09;;;;;;;22.05;12.20;;;;;;;;;;5131603;28;20016;-69
2023/11/11 09:09:54;;;;;;;19.15;11.57;;;;;;;;;;5132049;28;20026;-71
2023/11/11 09:12:40;;;;;;;20.60;11.52;;;;;;;;;;5126882;28;20027;-69
2023/11/11 09:15:26;;;;;;;20.92;11.93;;;;;;;;;;5119547;28;20030;-73
2023/11/11 09:18:12;;;;;;;16.92;11.18;;;;;;;;;;5117682;28;20016;-70
2023/11/11 09:20:59;;;;;;;16.42;10.05;;;;;;;;;;5117469;28;20023;-73
2023/11/11 09:23:45;;;;;;;18.00;10.85;;;;;;;;;;5089222;28;20024;-72
2023/11/11 09:26:30;;;;;;;16.05;11.60;;;;;;;;;;5115608;28;20023;-72
2023/11/11 09:29:19;;;;;;;18.05;11.75;;;;;;;;;;5102502;28;20030;-72
2023/11/11 09:32:04;;;;;;;17.13;11.57;;;;;;;;;;5104774;28;20030;-73
2023/11/11 09:34:50;;;;;;;20.20;13.30;;;;;;;;;;5103723;28;20024;-72
2023/11/11 09:37:36;;;;;;;21.42;13.48;;;;;;;;;;5112519;28;20144;-71
2023/11/11 09:40:21;;;;;;;23.52;14.05;;;;;;;;;;5113564;28;20040;-71
2023/11/11 09:43:09;;;;;;;21.88;14.10;;;;;;;;;;5113210;28;20027;-70
2023/11/11 09:45:55;;;;;;;23.90;14.52;;;;;;;;;;5127949;28;20040;-71
2023/11/11 09:48:41;;;;;;;23.92;14.40;;;;;;;;;;5109253;28;20019;-72
2023/11/11 09:51:27;;;;;;;20.85;14.05;;;;;;;;;;5118165;28;20027;-73
2023/11/11 09:54:13;;;;;;;26.42;16.52;;;;;;;;;;5118159;28;20447;-71
2023/11/11 09:56:58;;;;;;;30.05;16.95;;;;;;;;;;5103626;27;20035;-72
2023/11/11 09:59:44;;;;;;;25.98;15.77;;;;;;;;;;5119254;28;20028;-72
2023/11/11 10:02:30;;;;;;;28.20;16.20;;;;;;;;;;5119072;28;20015;-72
2023/11/11 10:05:17;;;;;;;27.50;15.55;;;;;;;;;;5118581;28;20016;-72
2023/11/11 10:08:03;;;;;;;29.30;16.10;;;;;;;;;;5106789;28;20043;-71
2023/11/11 10:10:48;;;;;;;25.02;15.77;;;;;;;;;;5121365;28;20030;-73
2023/11/11 10:13:34;;;;;;;22.95;14.85;;;;;;;;;;5120190;28;20015;-72
2023/11/11 10:16:25;;;;;;;25.13;15.43;;;;;;;;;;5121433;28;20020;-72
2023/11/11 10:19:14;;;;;;;27.50;16.45;;;;;;;;;;5103680;28;20028;-73
2023/11/11 10:22:00;;;;;;;22.75;13.98;;;;;;;;;;5100549;28;20023;-72
2023/11/11 10:24:46;;;;;;;21.52;13.45;;;;;;;;;;5100949;28;20310;-74
2023/11/11 10:27:32;;;;;;;27.70;14.02;;;;;;;;;;5115467;28;20024;-72
2023/11/11 10:30:19;;;;;;;23.20;13.88;;;;;;;;;;5116026;28;20035;-73
2023/11/11 10:33:04;;;;;;;18.42;13.45;;;;;;;;;;5115232;28;20019;-73
2023/11/11 10:35:50;;;;;;;16.35;12.30;;;;;;;;;;5117464;28;20019;-72
2023/11/11 10:38:35;;;;;;;22.92;13.00;;;;;;;;;;5120085;28;20099;-73
2023/11/11 10:41:22;;;;;;;19.55;12.35;;;;;;;;;;5100428;28;20012;-72
2023/11/11 10:44:07;;;;;;;20.63;12.95;;;;;;;;;;5120307;28;20336;-73
2023/11/11 10:46:54;;;;;;;22.42;12.88;;;;;;;;;;5121267;27;20050;-72
2023/11/11 10:49:41;;;;;;;20.50;13.57;;;;;;;;;;5119874;28;20062;-73
2023/11/11 10:52:27;;;;;;;24.95;13.02;;;;;;;;;;5120242;28;20110;-74
2023/11/11 10:55:13;;;;;;;23.92;13.50;;;;;;;;;;5119008;28;20561;-72
2023/11/11 10:57:59;;;;;;;23.65;14.35;;;;;;;;;;5119937;27;20019;-72
2023/11/11 11:00:46;;;;;;;19.67;13.73;;;;;;;;;;5118502;28;20023;-72
2023/11/11 11:03:31;;;;;;;22.10;14.90;;;;;;;;;;5119186;28;20168;-72
2023/11/11 11:06:26;;;;;;;30.15;17.65;;;;;;;;;;5119118;28;20051;-73
2023/11/11 11:09:15;;;;;;;28.58;17.25;;;;;;;;;;5103659;28;20107;-73
2023/11/11 11:12:10;;;;;;;25.17;16.67;;;;;;;;;;5118506;28;20051;-73
2023/11/11 11:15:00;;;;;;;31.65;17.63;;;;;;;;;;5104078;28;20363;-73
2023/11/11 11:17:47;;;;;;;27.50;18.23;;;;;;;;;;5118921;28;20038;-72
2023/11/11 11:20:33;;;;;;;28.92;18.25;;;;;;;;;;5110672;28;20041;-72
2023/11/11 11:23:22;;;;;;;34.28;20.42;;;;;;;;;;5108549;28;20015;-72
2023/11/11 11:26:09;;;;;;;28.00;19.05;;;;;;;;;;5118244;28;20450;-73
2023/11/11 11:29:11;;;;;;;33.15;20.95;;;;;;;;;;5118827;28;20106;-73
2023/11/11 11:32:04;;;;;;;32.05;20.75;;;;;;;;;;5118699;28;20023;-72
2023/11/11 11:35:10;;;;;;;31.67;19.63;;;;;;;;;;5117978;28;20055;-72
2023/11/11 11:37:57;;;;;;;32.22;18.95;;;;;;;;;;5119180;28;20492;-73
2023/11/11 11:40:45;;;;;;;64.30;21.08;;;;;;;;;;5117328;28;20016;-71
2023/11/11 11:43:31;;;;;;;34.10;17.95;;;;;;;;;;5118153;28;20505;-73
2023/11/11 11:46:21;;;;;;;27.60;17.88;;;;;;;;;;5105109;28;20406;-72
2023/11/11 11:49:06;;;;;;;24.83;16.42;;;;;;;;;;5118726;27;20439;-73
2023/11/11 11:51:52;;;;;;;28.25;16.45;;;;;;;;;;5117495;28;20030;-72
2023/11/11 11:54:38;;;;;;;26.80;17.55;;;;;;;;;;5116385;28;20043;-72
2023/11/11 11:57:24;;;;;;;33.42;18.65;;;;;;;;;;5101128;28;20340;-72
2023/11/11 12:00:09;;;;;;;32.55;18.33;;;;;;;;;;5101673;28;20413;-73
2023/11/11 12:02:56;;;;;;;29.10;18.63;;;;;;;;;;5118203;28;20027;-73
2023/11/11 12:05:41;;;;;;;28.75;17.45;;;;;;;;;;5103004;28;20023;-73
2023/11/11 12:08:27;;;;;;;26.48;17.13;;;;;;;;;;5117140;28;20027;-73
2023/11/11 12:11:13;;;;;;;28.02;17.23;;;;;;;;;;5117886;28;20356;-72
2023/11/11 12:14:07;;;;;;;27.02;17.58;;;;;;;;;;5118572;28;20031;-72
2023/11/11 12:16:53;;;;;;;30.33;17.80;;;;;;;;;;5102331;28;20447;-73
2023/11/11 12:19:45;;;;;;;31.00;19.88;;;;;;;;;;5111478;28;20024;-73
2023/11/11 12:22:31;;;;;;;30.23;20.02;;;;;;;;;;5117124;28;20019;-72
2023/11/11 12:25:16;;;;;;;37.58;19.63;;;;;;;;;;5117464;28;20071;-72
2023/11/11 12:28:02;;;;;;;36.55;21.17;;;;;;;;;;5102160;28;20363;-73
2023/11/11 12:30:48;;;;;;;53.63;23.23;;;;;;;;;;5117419;28;20111;-72
2023/11/11 12:33:34;;;;;;;35.40;21.17;;;;;;;;;;5116838;28;20423;-72
2023/11/11 12:36:20;;;;;;;36.13;22.75;;;;;;;;;;5101822;28;20026;-73
2023/11/11 12:39:09;;;;;;;33.72;21.70;;;;;;;;;;5118200;27;20034;-72
2023/11/11 12:41:55;;;;;;;37.03;21.73;;;;;;;;;;5115871;28;20027;-72
2023/11/11 12:44:41;;;;;;;30.35;20.75;;;;;;;;;;5102010;28;20052;-72
2023/11/11 12:47:27;;;;;;;28.15;17.48;;;;;;;;;;5117819;28;20027;-72
2023/11/11 12:50:12;;;;;;;25.17;13.32;;;;;;;;;;5116243;28;20023;-72
2023/11/11 12:53:10;;;;;;;18.80;10.77;;;;;;;;;;5117168;28;20020;-72
2023/11/11 12:56:04;;;;;;;13.32;8.65;;;;;;;;;;5117414;28;20431;-72
2023/11/11 12:59:02;;;;;;;24.77;8.88;;;;;;;;;;5100848;28;20156;-72
2023/11/11 13:01:51;;;;;;;17.38;8.75;;;;;;;;;;5108628;28;20047;-72
2023/11/11 13:04:37;;;;;;;12.55;7.97;;;;;;;;;;5120057;28;20011;-72
2023/11/11 13:07:28;;;;;;;12.10;8.55;;;;;;;;;;5136461;27;20045;-73
2023/11/11 13:10:17;;;;;;;13.40;8.73;;;;;;;;;;5135374;28;20039;-67
2023/11/11 13:13:04;;;;;;;9.90;7.60;;;;;;;;;;5128427;28;20034;-67
2023/11/11 13:15:50;;;;;;;10.60;8.02;;;;;;;;;;5123419;28;20016;-67
2023/11/11 13:18:36;;;;;;;11.40;7.63;;;;;;;;;;5118206;28;20028;-68
2023/11/11 13:21:26;;;;;;;10.93;7.22;;;;;;;;;;5115094;28;20047;-69
2023/11/11 13:24:12;;;;;;;11.00;6.50;;;;;;;;;;5114812;28;20514;-67
2023/11/11 13:26:58;;;;;;;8.13;5.95;;;;;;;;;;5113369;28;20033;-68
2023/11/11 13:29:44;;;;;;;11.90;5.32;;;;;;;;;;5100404;28;20024;-68
2023/11/11 13:32:30;;;;;;;7.90;5.22;;;;;;;;;;5114959;28;20349;-68
2023/11/11 13:35:16;;;;;;;9.02;5.03;;;;;;;;;;5099229;28;20353;-69
2023/11/11 13:38:07;;;;;;;8.25;5.75;;;;;;;;;;5099006;28;20035;-68
2023/11/11 13:40:53;;;;;;;9.35;6.07;;;;;;;;;;5114778;28;20093;-68
2023/11/11 13:43:38;;;;;;;11.32;6.70;;;;;;;;;;5116780;28;20024;-68
2023/11/11 13:46:25;;;;;;;10.25;6.60;;;;;;;;;;5114690;28;20062;-68
2023/11/11 13:49:11;;;;;;;10.35;6.93;;;;;;;;;;5114456;28;20023;-68
2023/11/11 13:51:56;;;;;;;10.65;6.88;;;;;;;;;;5113199;28;20020;-69
2023/11/11 13:54:44;;;;;;;10.52;7.25;;;;;;;;;;5114062;28;20054;-68
2023/11/11 13:57:30;;;;;;;10.52;6.97;;;;;;;;;;5098552;28;20028;-69
2023/11/11 14:00:28;;;;;;;14.93;7.05;;;;;;;;;;5106221;28;20027;-69
2023/11/11 14:03:17;;;;;;;13.70;7.75;;;;;;;;;;5115200;28;20044;-68
2023/11/11 14:06:05;;;;;;;12.57;7.45;;;;;;;;;;5114432;28;20148;-68
2023/11/11 14:08:51;;;;;;;10.07;6.93;;;;;;;;;;5114151;28;20028;-68
2023/11/11 14:11:36;;;;;;;9.65;6.68;;;;;;;;;;5099761;28;20019;-68
2023/11/11 14:14:22;;;;;;;29.50;8.95;;;;;;;;;;5099821;28;20020;-69
2023/11/11 14:17:07;;;;;;;25.27;8.40;;;;;;;;;;5113109;28;20016;-68
2023/11/11 14:19:53;;;;;;;24.05;9.15;;;;;;;;;;5113742;28;20020;-69
2023/11/11 14:22:38;;;;;;;13.95;8.43;;;;;;;;;;5113950;28;20329;-68
2023/11/11 14:25:24;;;;;;;11.77;8.02;;;;;;;;;;5114346;28;20464;-69
2023/11/11 14:28:10;;;;;;;11.52;8.18;;;;;;;;;;5112771;28;20031;-69
2023/11/11 14:30:56;;;;;;;12.98;9.55;;;;;;;;;;5113383;28;20024;-69
2023/11/11 14:33:41;;;;;;;16.27;10.20;;;;;;;;;;5114191;28;20031;-69
2023/11/11 14:36:27;;;;;;;15.30;10.15;;;;;;;;;;5113998;28;20034;-69
2023/11/11 14:39:14;;;;;;;11.30;8.52;;;;;;;;;;5113080;28;20027;-69
2023/11/11 14:41:59;;;;;;;13.43;9.23;;;;;;;;;;5098561;28;20172;-69
2023/11/11 14:44:45;;;;;;;18.35;9.45;;;;;;;;;;5113884;28;20027;-69
2023/11/11 14:47:31;;;;;;;14.30;9.98;;;;;;;;;;5114063;28;20034;-70
2023/11/11 14:50:17;;;;;;;13.05;9.45;;;;;;;;;;5112401;28;20020;-70
2023/11/11 14:53:03;;;;;;;13.32;9.13;;;;;;;;;;5113558;28;20024;-70
2023/11/11 14:55:48;;;;;;;14.70;10.05;;;;;;;;;;5113974;28;20038;-69
2023/11/11 14:58:35;;;;;;;13.93;9.75;;;;;;;;;;5094136;28;20455;-69
2023/11/11 15:01:21;;;;;;;14.30;9.50;;;;;;;;;;5094174;28;20449;-71
2023/11/11 15:04:07;;;;;;;15.30;9.35;;;;;;;;;;5092882;28;20035;-71
2023/11/11 15:06:53;;;;;;;14.52;10.18;;;;;;;;;;5079504;28;20314;-70
2023/11/11 15:09:38;;;;;;;16.10;10.27;;;;;;;;;;5093505;28;20097;-70
2023/11/11 15:12:25;;;;;;;14.15;10.07;;;;;;;;;;5093811;28;20027;-70
2023/11/11 15:15:11;;;;;;;18.00;11.23;;;;;;;;;;5092965;28;20425;-70
2023/11/11 15:17:57;;;;;;;14.70;10.00;;;;;;;;;;5093432;28;20115;-72
2023/11/11 15:20:42;;;;;;;15.00;10.13;;;;;;;;;;5094159;28;20020;-71
2023/11/11 15:23:31;;;;;;;16.08;9.73;;;;;;;;;;5078954;28;20027;-69
2023/11/11 15:26:16;;;;;;;17.63;11.98;;;;;;;;;;5093787;28;20049;-69
2023/11/11 15:29:02;;;;;;;17.85;12.05;;;;;;;;;;5095146;28;20020;-69
2023/11/11 15:31:48;;;;;;;18.38;11.07;;;;;;;;;;5083100;28;20046;-69
2023/11/11 15:34:35;;;;;;;14.20;10.30;;;;;;;;;;5096319;28;20106;-70
2023/11/11 15:37:20;;;;;;;15.70;10.95;;;;;;;;;;5098662;28;20028;-71
2023/11/11 15:40:08;;;;;;;17.63;9.93;;;;;;;;;;5096571;28;20030;-71
2023/11/11 15:42:53;;;;;;;15.20;10.45;;;;;;;;;;5097498;28;20101;-71
2023/11/11 15:45:39;;;;;;;16.75;11.07;;;;;;;;;;5097556;28;20024;-71
2023/11/11 15:48:26;;;;;;;13.65;9.90;;;;;;;;;;5097413;28;20043;-72
2023/11/11 15:51:12;;;;;;;14.55;10.65;;;;;;;;;;5097194;28;20027;-71
2023/11/11 15:53:57;;;;;;;15.38;10.25;;;;;;;;;;5098145;28;20051;-72
2023/11/11 15:56:46;;;;;;;17.10;10.68;;;;;;;;;;5082266;28;20411;-72
2023/11/11 15:59:31;;;;;;;17.13;11.25;;;;;;;;;;5098202;28;20031;-72
2023/11/11 16:02:17;;;;;;;16.02;10.93;;;;;;;;;;5103117;28;20436;-73
2023/11/11 16:05:03;;;;;;;19.63;12.32;;;;;;;;;;5117505;28;20083;-72
2023/11/11 16:07:49;;;;;;;19.52;12.20;;;;;;;;;;5117989;28;20027;-71
2023/11/11 16:10:35;;;;;;;18.38;12.02;;;;;;;;;;5119245;28;20053;-73
2023/11/11 16:13:20;;;;;;;14.43;10.40;;;;;;;;;;5119208;28;20053;-71
2023/11/11 16:16:06;;;;;;;18.73;11.55;;;;;;;;;;5118171;28;20027;-72
2023/11/11 16:18:52;;;;;;;19.42;12.25;;;;;;;;;;5103940;28;20026;-72